East Franklin, Vermont
Current Conditions -  °F | °C
As of 3:15 AM on Friday 24 Oct 2014 (Local Time) from KFSO Reporting Station
Moderate Rain Moderate Rain  
Wind Chill: 36°   Ceiling: 400
Heat Index: 41°   Visibility: 2.5mi
Dew Point: 40°   Wind: 7mph
Humidity: 98%   Direction: 360°N
Pressure: 29.85"   Gusts: NA
Location:  44.9656°N, 72.8975°W
Report Text: KFSO 240715Z AUTO 36006KT 2 1/2SM RA OVC004 05/05 A2985 RMK AO2 T00480045
Loading
Personal Weather Stations






























Interactive Weather Map
Tropical Storm Tracking
New forecast layout! Learn more

10-Day Weather Forecast

Advertisements
Track Severe Weather on mobile